Aviation Digital Data Service (ADDS)

Output produced by METARs form (0519 UTC 16 February 2019)
found at http://www.aviationweather.gov/metar/data/
 
Forecast for: LFOK (CHALONS/VATRY FA, FR)
Text: TAF LFOK 152300Z 1600/1624 12005KT CAVOK
Forecast period: 0000 UTC 16 February 2019 to 0000 UTC 17 February 2019
Forecast type: FROM: standard forecast or significant change
Winds: from the ESE (120 degrees) at 6 MPH (5 knots; 2.6 m/s)
Visibility: 6 or more miles 10+ km)
Ceiling: unknown
Clouds: missing
Weather: NSW  (no significant weather)
Text: TEMPO 1603/1607 3000 BR
Forecast period: 0300 to 0700 UTC 16 February 2019
Forecast type: TEMPORARY: The following changes expected for less than half the time period
Visibility: 1.86 miles (2.99 km)
Ceiling: unknown
Clouds: missing
Weather: BR  (mist)